sensor_id;sensor_type;location;lat;lon;timestamp;pressure;altitude;pressure_sealevel;temperature;humidity
59787;BME280;45672;51.612;5.536;2023-11-19T00:01:00;100685.63;;;11.83;100.00
59787;BME280;45672;51.612;5.536;2023-11-19T00:03:26;100686.44;;;11.84;100.00
59787;BME280;45672;51.612;5.536;2023-11-19T00:05:51;100683.66;;;11.85;100.00
59787;BME280;45672;51.612;5.536;2023-11-19T00:08:17;100676.63;;;11.84;100.00
59787;BME280;45672;51.612;5.536;2023-11-19T00:10:42;100663.47;;;11.75;100.00
59787;BME280;45672;51.612;5.536;2023-11-19T00:13:07;100680.63;;;11.88;100.00
59787;BME280;45672;51.612;5.536;2023-11-19T00:15:35;100677.47;;;11.85;100.00
59787;BME280;45672;51.612;5.536;2023-11-19T00:18:00;100659.16;;;11.82;100.00
59787;BME280;45672;51.612;5.536;2023-11-19T00:20:29;100659.97;;;11.90;100.00
59787;BME280;45672;51.612;5.536;2023-11-19T00:22:55;100652.97;;;11.89;100.00
59787;BME280;45672;51.612;5.536;2023-11-19T00:25:21;100649.31;;;11.90;100.00
59787;BME280;45672;51.612;5.536;2023-11-19T00:27:50;100625.47;;;11.89;100.00
59787;BME280;45672;51.612;5.536;2023-11-19T00:30:16;100649.31;;;11.90;100.00
59787;BME280;45672;51.612;5.536;2023-11-19T00:32:42;100648.13;;;11.93;100.00
59787;BME280;45672;51.612;5.536;2023-11-19T00:35:08;100626.81;;;11.93;100.00
59787;BME280;45672;51.612;5.536;2023-11-19T00:37:35;100633.84;;;11.94;100.00
59787;BME280;45672;51.612;5.536;2023-11-19T00:40:00;100636.50;;;11.94;100.00
59787;BME280;45672;51.612;5.536;2023-11-19T00:42:25;100634.66;;;11.95;100.00
59787;BME280;45672;51.612;5.536;2023-11-19T00:44:51;100636.00;;;11.99;100.00
59787;BME280;45672;51.612;5.536;2023-11-19T00:47:17;100625.31;;;11.99;100.00
59787;BME280;45672;51.612;5.536;2023-11-19T00:49:46;100637.66;;;12.00;100.00
59787;BME280;45672;51.612;5.536;2023-11-19T00:52:11;100632.50;;;11.98;100.00
59787;BME280;45672;51.612;5.536;2023-11-19T00:54:36;100625.00;;;11.94;100.00
59787;BME280;45672;51.612;5.536;2023-11-19T00:57:02;100640.66;;;11.97;100.00
59787;BME280;45672;51.612;5.536;2023-11-19T00:59:27;100645.84;;;11.98;100.00
59787;BME280;45672;51.612;5.536;2023-11-19T01:01:53;100636.00;;;11.99;100.00
59787;BME280;45672;51.612;5.536;2023-11-19T01:04:19;100644.97;;;11.98;100.00
59787;BME280;45672;51.612;5.536;2023-11-19T01:06:44;100660.81;;;11.99;100.00
59787;BME280;45672;51.612;5.536;2023-11-19T01:09:10;100643.31;;;11.97;100.00
59787;BME280;45672;51.612;5.536;2023-11-19T01:11:35;100646.66;;;11.99;100.00
59787;BME280;45672;51.612;5.536;2023-11-19T01:14:00;100638.16;;;11.95;100.00
59787;BME280;45672;51.612;5.536;2023-11-19T01:16:26;100633.00;;;11.94;100.00
59787;BME280;45672;51.612;5.536;2023-11-19T01:18:52;100634.50;;;11.96;100.00
59787;BME280;45672;51.612;5.536;2023-11-19T01:21:18;100623.00;;;11.96;100.00
59787;BME280;45672;51.612;5.536;2023-11-19T01:23:43;100613.00;;;11.98;100.00
59787;BME280;45672;51.612;5.536;2023-11-19T01:26:09;100606.00;;;11.88;100.00
59787;BME280;45672;51.612;5.536;2023-11-19T01:28:39;100612.50;;;11.94;100.00
59787;BME280;45672;51.612;5.536;2023-11-19T01:31:05;100595.66;;;11.94;100.00
59787;BME280;45672;51.612;5.536;2023-11-19T01:33:30;100607.63;;;11.89;100.00
59787;BME280;45672;51.612;5.536;2023-11-19T01:35:56;100586.00;;;11.84;100.00
59787;BME280;45672;51.612;5.536;2023-11-19T01:38:24;100586.34;;;11.81;100.00
59787;BME280;45672;51.612;5.536;2023-11-19T01:40:49;100600.84;;;11.87;100.00
59787;BME280;45672;51.612;5.536;2023-11-19T01:43:34;100612.84;;;11.83;100.00
59787;BME280;45672;51.612;5.536;2023-11-19T01:46:00;100615.66;;;11.81;100.00
59787;BME280;45672;51.612;5.536;2023-11-19T01:48:26;100620.84;;;11.83;100.00
59787;BME280;45672;51.612;5.536;2023-11-19T01:50:51;100618.16;;;11.83;100.00
59787;BME280;45672;51.612;5.536;2023-11-19T01:53:18;100621.31;;;11.86;100.00
59787;BME280;45672;51.612;5.536;2023-11-19T01:55:46;100613.13;;;11.88;100.00
59787;BME280;45672;51.612;5.536;2023-11-19T01:58:11;100616.81;;;11.87;100.00
59787;BME280;45672;51.612;5.536;2023-11-19T02:00:37;100611.34;;;11.80;100.00
59787;BME280;45672;51.612;5.536;2023-11-19T02:03:05;100600.66;;;11.80;100.00
59787;BME280;45672;51.612;5.536;2023-11-19T02:05:33;100601.50;;;11.72;100.00
59787;BME280;45672;51.612;5.536;2023-11-19T02:07:59;100593.69;;;11.63;100.00
59787;BME280;45672;51.612;5.536;2023-11-19T02:10:24;100599.03;;;11.63;100.00
59787;BME280;45672;51.612;5.536;2023-11-19T02:12:50;100592.19;;;11.60;100.00
59787;BME280;45672;51.612;5.536;2023-11-19T02:15:16;100594.88;;;11.60;100.00
59787;BME280;45672;51.612;5.536;2023-11-19T02:17:44;100580.72;;;11.51;100.00
59787;BME280;45672;51.612;5.536;2023-11-19T02:20:09;100587.22;;;11.49;100.00
59787;BME280;45672;51.612;5.536;2023-11-19T02:22:37;100594.22;;;11.50;100.00
59787;BME280;45672;51.612;5.536;2023-11-19T02:25:17;100585.72;;;11.46;100.00
59787;BME280;45672;51.612;5.536;2023-11-19T02:27:54;100590.88;;;11.48;100.00
59787;BME280;45672;51.612;5.536;2023-11-19T02:30:21;100600.38;;;11.50;100.00
59787;BME280;45672;51.612;5.536;2023-11-19T02:32:51;100606.50;;;11.51;100.00
59787;BME280;45672;51.612;5.536;2023-11-19T02:35:17;100607.38;;;11.51;100.00
59787;BME280;45672;51.612;5.536;2023-11-19T02:37:42;100593.88;;;11.53;100.00
59787;BME280;45672;51.612;5.536;2023-11-19T02:40:08;100591.88;;;11.55;100.00
59787;BME280;45672;51.612;5.536;2023-11-19T02:42:34;100609.34;;;11.58;100.00
59787;BME280;45672;51.612;5.536;2023-11-19T02:44:59;100606.34;;;11.61;100.00
59787;BME280;45672;51.612;5.536;2023-11-19T02:47:24;100581.38;;;11.53;100.00
59787;BME280;45672;51.612;5.536;2023-11-19T02:49:50;100590.38;;;11.44;100.00
59787;BME280;45672;51.612;5.536;2023-11-19T02:52:15;100591.56;;;11.50;100.00
59787;BME280;45672;51.612;5.536;2023-11-19T02:54:42;100599.53;;;11.50;100.00
59787;BME280;45672;51.612;5.536;2023-11-19T02:57:07;100597.88;;;11.49;100.00
59787;BME280;45672;51.612;5.536;2023-11-19T02:59:38;100598.69;;;11.41;100.00
59787;BME280;45672;51.612;5.536;2023-11-19T03:02:07;100602.84;;;11.35;100.00
59787;BME280;45672;51.612;5.536;2023-11-19T03:04:36;100607.19;;;11.28;100.00
59787;BME280;45672;51.612;5.536;2023-11-19T03:07:02;100609.84;;;11.20;100.00
59787;BME280;45672;51.612;5.536;2023-11-19T03:09:27;100601.84;;;11.12;100.00
59787;BME280;45672;51.612;5.536;2023-11-19T03:11:54;100603.34;;;11.06;100.00
59787;BME280;45672;51.612;5.536;2023-11-19T03:14:19;100603.50;;;11.04;100.00
59787;BME280;45672;51.612;5.536;2023-11-19T03:16:45;100602.34;;;10.99;100.00
59787;BME280;45672;51.612;5.536;2023-11-19T03:19:11;100596.66;;;10.94;100.00
59787;BME280;45672;51.612;5.536;2023-11-19T03:21:37;100605.13;;;10.89;100.00
59787;BME280;45672;51.612;5.536;2023-11-19T03:24:02;100600.13;;;10.78;100.00
59787;BME280;45672;51.612;5.536;2023-11-19T03:26:28;100603.44;;;10.80;100.00
59787;BME280;45672;51.612;5.536;2023-11-19T03:28:54;100606.75;;;10.74;100.00
59787;BME280;45672;51.612;5.536;2023-11-19T03:31:20;100616.41;;;10.75;100.00
59787;BME280;45672;51.612;5.536;2023-11-19T03:33:45;100618.72;;;10.69;100.00
59787;BME280;45672;51.612;5.536;2023-11-19T03:36:11;100610.53;;;10.63;100.00
59787;BME280;45672;51.612;5.536;2023-11-19T03:38:38;100612.03;;;10.65;100.00
59787;BME280;45672;51.612;5.536;2023-11-19T03:41:13;100588.91;;;10.58;100.00
59787;BME280;45672;51.612;5.536;2023-11-19T03:43:39;100601.91;;;10.61;100.00
59787;BME280;45672;51.612;5.536;2023-11-19T03:46:15;100609.56;;;10.64;100.00
59787;BME280;45672;51.612;5.536;2023-11-19T03:48:41;100572.28;;;10.56;100.00
59787;BME280;45672;51.612;5.536;2023-11-19T03:51:06;100597.75;;;10.66;100.00
59787;BME280;45672;51.612;5.536;2023-11-19T03:53:31;100598.91;;;10.64;100.00
59787;BME280;45672;51.612;5.536;2023-11-19T03:55:57;100599.06;;;10.62;100.00
59787;BME280;45672;51.612;5.536;2023-11-19T03:58:22;100595.59;;;10.62;100.00
59787;BME280;45672;51.612;5.536;2023-11-19T04:00:47;100591.41;;;10.59;100.00
59787;BME280;45672;51.612;5.536;2023-11-19T04:03:12;100588.44;;;10.62;100.00
59787;BME280;45672;51.612;5.536;2023-11-19T04:05:38;100593.22;;;10.59;100.00
59787;BME280;45672;51.612;5.536;2023-11-19T04:08:03;100590.06;;;10.55;100.00
59787;BME280;45672;51.612;5.536;2023-11-19T04:10:28;100590.56;;;10.59;100.00
59787;BME280;45672;51.612;5.536;2023-11-19T04:12:54;100591.41;;;10.59;100.00
59787;BME280;45672;51.612;5.536;2023-11-19T04:15:19;100599.91;;;10.55;100.00
59787;BME280;45672;51.612;5.536;2023-11-19T04:17:44;100584.72;;;10.47;100.00
59787;BME280;45672;51.612;5.536;2023-11-19T04:20:11;100590.41;;;10.52;100.00
59787;BME280;45672;51.612;5.536;2023-11-19T04:22:38;100599.19;;;10.52;100.00
59787;BME280;45672;51.612;5.536;2023-11-19T04:25:04;100603.53;;;10.54;100.00
59787;BME280;45672;51.612;5.536;2023-11-19T04:27:29;100596.91;;;10.58;100.00
59787;BME280;45672;51.612;5.536;2023-11-19T04:29:55;100613.53;;;10.60;100.00
59787;BME280;45672;51.612;5.536;2023-11-19T04:32:20;100617.34;;;10.57;100.00
59787;BME280;45672;51.612;5.536;2023-11-19T04:34:46;100609.19;;;10.50;100.00
59787;BME280;45672;51.612;5.536;2023-11-19T04:37:11;100625.81;;;10.52;100.00
59787;BME280;45672;51.612;5.536;2023-11-19T04:39:36;100613.31;;;10.53;100.00
59787;BME280;45672;51.612;5.536;2023-11-19T04:42:02;100618.81;;;10.51;100.00
59787;BME280;45672;51.612;5.536;2023-11-19T04:44:29;100614.19;;;10.54;100.00
59787;BME280;45672;51.612;5.536;2023-11-19T04:46:54;100611.34;;;10.55;100.00
59787;BME280;45672;51.612;5.536;2023-11-19T04:49:20;100620.69;;;10.59;100.00
59787;BME280;45672;51.612;5.536;2023-11-19T04:51:45;100607.88;;;10.55;100.00
59787;BME280;45672;51.612;5.536;2023-11-19T04:54:14;100613.84;;;10.57;100.00
59787;BME280;45672;51.612;5.536;2023-11-19T04:56:39;100615.31;;;10.51;100.00
59787;BME280;45672;51.612;5.536;2023-11-19T04:59:05;100625.16;;;10.50;100.00
59787;BME280;45672;51.612;5.536;2023-11-19T05:01:34;100634.94;;;10.50;100.00
59787;BME280;45672;51.612;5.536;2023-11-19T05:03:59;100627.97;;;10.49;100.00
59787;BME280;45672;51.612;5.536;2023-11-19T05:06:31;100632.44;;;10.48;100.00
59787;BME280;45672;51.612;5.536;2023-11-19T05:08:58;100636.78;;;10.49;100.00
59787;BME280;45672;51.612;5.536;2023-11-19T05:11:26;100632.09;;;10.51;100.00
59787;BME280;45672;51.612;5.536;2023-11-19T05:13:53;100620.81;;;10.49;100.00
59787;BME280;45672;51.612;5.536;2023-11-19T05:16:19;100620.28;;;10.46;100.00
59787;BME280;45672;51.612;5.536;2023-11-19T05:18:46;100625.75;;;10.44;100.00
59787;BME280;45672;51.612;5.536;2023-11-19T05:21:11;100632.91;;;10.44;100.00
59787;BME280;45672;51.612;5.536;2023-11-19T05:23:37;100631.72;;;10.38;100.00
59787;BME280;45672;51.612;5.536;2023-11-19T05:26:02;100631.41;;;10.41;100.00
59787;BME280;45672;51.612;5.536;2023-11-19T05:28:28;100628.53;;;10.34;100.00
59787;BME280;45672;51.612;5.536;2023-11-19T05:30:54;100637.50;;;10.33;100.00
59787;BME280;45672;51.612;5.536;2023-11-19T05:33:19;100625.34;;;10.31;100.00
59787;BME280;45672;51.612;5.536;2023-11-19T05:35:44;100639.31;;;10.33;100.00
59787;BME280;45672;51.612;5.536;2023-11-19T05:38:10;100636.22;;;10.38;100.00
59787;BME280;45672;51.612;5.536;2023-11-19T05:40:35;100644.88;;;10.40;100.00
59787;BME280;45672;51.612;5.536;2023-11-19T05:43:01;100642.38;;;10.38;100.00
59787;BME280;45672;51.612;5.536;2023-11-19T05:45:26;100643.69;;;10.34;100.00
59787;BME280;45672;51.612;5.536;2023-11-19T05:47:52;100648.09;;;10.25;100.00
59787;BME280;45672;51.612;5.536;2023-11-19T05:50:17;100656.00;;;10.35;100.00
59787;BME280;45672;51.612;5.536;2023-11-19T05:52:43;100654.69;;;10.39;100.00
59787;BME280;45672;51.612;5.536;2023-11-19T05:55:09;100652.19;;;10.38;100.00
59787;BME280;45672;51.612;5.536;2023-11-19T05:57:37;100650.19;;;10.40;100.00
59787;BME280;45672;51.612;5.536;2023-11-19T06:00:03;100651.66;;;10.34;100.00
59787;BME280;45672;51.612;5.536;2023-11-19T06:02:32;100644.56;;;10.25;100.00
59787;BME280;45672;51.612;5.536;2023-11-19T06:04:58;100643.09;;;10.22;100.00
59787;BME280;45672;51.612;5.536;2023-11-19T06:07:23;100652.88;;;10.22;100.00
59787;BME280;45672;51.612;5.536;2023-11-19T06:09:49;100663.66;;;10.20;100.00
59787;BME280;45672;51.612;5.536;2023-11-19T06:12:14;100653.19;;;10.18;100.00
59787;BME280;45672;51.612;5.536;2023-11-19T06:14:40;100649.38;;;10.21;100.00
59787;BME280;45672;51.612;5.536;2023-11-19T06:17:05;100643.53;;;10.17;100.00
59787;BME280;45672;51.612;5.536;2023-11-19T06:19:31;100648.34;;;10.14;100.00
59787;BME280;45672;51.612;5.536;2023-11-19T06:21:56;100648.50;;;10.12;100.00
59787;BME280;45672;51.612;5.536;2023-11-19T06:24:21;100650.63;;;10.09;100.00
59787;BME280;45672;51.612;5.536;2023-11-19T06:26:47;100648.84;;;10.09;100.00
59787;BME280;45672;51.612;5.536;2023-11-19T06:29:13;100640.69;;;10.11;100.00
59787;BME280;45672;51.612;5.536;2023-11-19T06:31:43;100645.31;;;10.09;100.00
59787;BME280;45672;51.612;5.536;2023-11-19T06:34:09;100648.84;;;10.09;100.00
59787;BME280;45672;51.612;5.536;2023-11-19T06:36:34;100652.78;;;10.05;100.00
59787;BME280;45672;51.612;5.536;2023-11-19T06:39:00;100645.31;;;10.09;100.00
59787;BME280;45672;51.612;5.536;2023-11-19T06:41:26;100647.47;;;10.05;100.00
59787;BME280;45672;51.612;5.536;2023-11-19T06:43:51;100643.81;;;10.06;100.00
59787;BME280;45672;51.612;5.536;2023-11-19T06:46:17;100631.53;;;10.05;100.00
59787;BME280;45672;51.612;5.536;2023-11-19T06:48:43;100634.84;;;10.07;100.00
59787;BME280;45672;51.612;5.536;2023-11-19T06:51:09;100638.38;;;10.08;100.00
59787;BME280;45672;51.612;5.536;2023-11-19T06:53:34;100644.81;;;10.05;100.00
59787;BME280;45672;51.612;5.536;2023-11-19T06:56:01;100652.78;;;10.05;100.00
59787;BME280;45672;51.612;5.536;2023-11-19T06:58:30;100647.78;;;10.02;100.00
59787;BME280;45672;51.612;5.536;2023-11-19T07:00:56;100652.03;;;9.95;100.00
59787;BME280;45672;51.612;5.536;2023-11-19T07:03:21;100672.69;;;10.01;100.00
59787;BME280;45672;51.612;5.536;2023-11-19T07:05:46;100664.03;;;9.99;100.00
59787;BME280;45672;51.612;5.536;2023-11-19T07:08:12;100665.72;;;10.00;100.00
59787;BME280;45672;51.612;5.536;2023-11-19T07:10:38;100665.47;;;9.93;100.00
59787;BME280;45672;51.612;5.536;2023-11-19T07:13:03;100675.69;;;9.98;100.00
59787;BME280;45672;51.612;5.536;2023-11-19T07:15:31;100679.31;;;9.97;100.00
59787;BME280;45672;51.612;5.536;2023-11-19T07:17:57;100696.94;;;9.98;100.00
59787;BME280;45672;51.612;5.536;2023-11-19T07:20:23;100700.25;;;10.00;100.00
59787;BME280;45672;51.612;5.536;2023-11-19T07:22:49;100692.28;;;10.00;100.00
59787;BME280;45672;51.612;5.536;2023-11-19T07:25:14;100694.78;;;10.01;100.00
59787;BME280;45672;51.612;5.536;2023-11-19T07:27:39;100699.28;;;10.01;100.00
59787;BME280;45672;51.612;5.536;2023-11-19T07:30:06;100706.28;;;10.02;100.00
59787;BME280;45672;51.612;5.536;2023-11-19T07:32:34;100684.41;;;9.90;100.00
59787;BME280;45672;51.612;5.536;2023-11-19T07:34:59;100705.66;;;10.08;100.00
59787;BME280;45672;51.612;5.536;2023-11-19T07:37:25;100715.97;;;10.11;100.00
59787;BME280;45672;51.612;5.536;2023-11-19T07:39:50;100717.31;;;10.15;100.00
59787;BME280;45672;51.612;5.536;2023-11-19T07:42:15;100712.38;;;10.21;100.00
59787;BME280;45672;51.612;5.536;2023-11-19T07:44:41;100715.38;;;10.26;100.00
59787;BME280;45672;51.612;5.536;2023-11-19T07:47:06;100720.56;;;10.27;100.00
59787;BME280;45672;51.612;5.536;2023-11-19T07:49:32;100719.94;;;10.33;100.00
59787;BME280;45672;51.612;5.536;2023-11-19T07:51:57;100705.28;;;10.29;100.00
59787;BME280;45672;51.612;5.536;2023-11-19T07:54:22;100716.69;;;10.40;100.00
59787;BME280;45672;51.612;5.536;2023-11-19T07:56:48;100706.88;;;10.40;100.00
59787;BME280;45672;51.612;5.536;2023-11-19T07:59:14;100723.72;;;10.49;100.00
59787;BME280;45672;51.612;5.536;2023-11-19T08:01:40;100714.28;;;10.55;100.00
59787;BME280;45672;51.612;5.536;2023-11-19T08:04:05;100722.44;;;10.61;100.00
59787;BME280;45672;51.612;5.536;2023-11-19T08:06:30;100724.28;;;10.61;100.00
59787;BME280;45672;51.612;5.536;2023-11-19T08:08:56;100735.81;;;10.69;100.00
59787;BME280;45672;51.612;5.536;2023-11-19T08:11:21;100729.16;;;10.74;100.00
59787;BME280;45672;51.612;5.536;2023-11-19T08:13:46;100735.03;;;10.85;100.00
59787;BME280;45672;51.612;5.536;2023-11-19T08:16:12;100723.91;;;10.90;100.00
59787;BME280;45672;51.612;5.536;2023-11-19T08:18:37;100718.16;;;11.03;100.00
59787;BME280;45672;51.612;5.536;2023-11-19T08:21:03;100731.53;;;11.28;100.00
59787;BME280;45672;51.612;5.536;2023-11-19T08:23:30;100731.22;;;11.39;100.00
59787;BME280;45672;51.612;5.536;2023-11-19T08:25:55;100733.91;;;11.47;100.00
59787;BME280;45672;51.612;5.536;2023-11-19T08:28:20;100742.75;;;11.56;100.00
59787;BME280;45672;51.612;5.536;2023-11-19T08:30:46;100744.09;;;11.60;100.00
59787;BME280;45672;51.612;5.536;2023-11-19T08:33:11;100729.25;;;11.58;100.00
59787;BME280;45672;51.612;5.536;2023-11-19T08:35:36;100726.59;;;11.49;100.00
59787;BME280;45672;51.612;5.536;2023-11-19T08:38:02;100734.25;;;11.61;100.00
59787;BME280;45672;51.612;5.536;2023-11-19T08:40:28;100723.94;;;11.58;100.00
59787;BME280;45672;51.612;5.536;2023-11-19T08:42:55;100716.78;;;11.66;100.00
59787;BME280;45672;51.612;5.536;2023-11-19T08:45:21;100718.28;;;11.61;100.00
59787;BME280;45672;51.612;5.536;2023-11-19T08:47:46;100728.94;;;11.61;100.00
59787;BME280;45672;51.612;5.536;2023-11-19T08:50:11;100724.28;;;11.63;100.00
59787;BME280;45672;51.612;5.536;2023-11-19T08:52:37;100717.28;;;11.62;100.00
59787;BME280;45672;51.612;5.536;2023-11-19T08:55:02;100731.94;;;11.66;100.00
59787;BME280;45672;51.612;5.536;2023-11-19T08:57:30;100738.44;;;11.63;100.00
59787;BME280;45672;51.612;5.536;2023-11-19T08:59:55;100726.75;;;11.72;100.00
59787;BME280;45672;51.612;5.536;2023-11-19T09:02:21;100731.78;;;11.92;100.00
59787;BME280;45672;51.612;5.536;2023-11-19T09:04:46;100730.81;;;12.01;100.00
59787;BME280;45672;51.612;5.536;2023-11-19T09:07:11;100738.97;;;12.16;100.00
59787;BME280;45672;51.612;5.536;2023-11-19T09:09:37;100721.97;;;12.09;100.00
59787;BME280;45672;51.612;5.536;2023-11-19T09:12:03;100732.47;;;12.11;100.00
59787;BME280;45672;51.612;5.536;2023-11-19T09:14:31;100733.97;;;12.05;100.00
59787;BME280;45672;51.612;5.536;2023-11-19T09:16:57;100737.31;;;11.99;100.00
59787;BME280;45672;51.612;5.536;2023-11-19T09:19:23;100720.97;;;12.02;100.00
59787;BME280;45672;51.612;5.536;2023-11-19T09:21:49;100733.31;;;12.03;100.00
59787;BME280;45672;51.612;5.536;2023-11-19T09:24:15;100724.16;;;11.97;100.00
59787;BME280;45672;51.612;5.536;2023-11-19T09:26:40;100733.66;;;12.00;100.00
59787;BME280;45672;51.612;5.536;2023-11-19T09:29:07;100722.81;;;12.01;100.00
59787;BME280;45672;51.612;5.536;2023-11-19T09:31:33;100723.81;;;12.09;100.00
59787;BME280;45672;51.612;5.536;2023-11-19T09:33:58;100716.97;;;12.06;100.00
59787;BME280;45672;51.612;5.536;2023-11-19T09:36:23;100712.31;;;12.08;100.00
59787;BME280;45672;51.612;5.536;2023-11-19T09:38:49;100719.66;;;12.14;100.00
59787;BME280;45672;51.612;5.536;2023-11-19T09:41:14;100724.00;;;12.15;100.00
59787;BME280;45672;51.612;5.536;2023-11-19T09:43:41;100718.66;;;12.15;100.00
59787;BME280;45672;51.612;5.536;2023-11-19T09:46:09;100714.81;;;12.10;100.00
59787;BME280;45672;51.612;5.536;2023-11-19T09:48:37;100717.63;;;12.16;100.00
59787;BME280;45672;51.612;5.536;2023-11-19T09:51:04;100729.97;;;12.34;100.00
59787;BME280;45672;51.612;5.536;2023-11-19T09:53:30;100713.63;;;12.29;100.00
59787;BME280;45672;51.612;5.536;2023-11-19T09:55:56;100721.97;;;12.26;100.00
59787;BME280;45672;51.612;5.536;2023-11-19T09:58:22;100728.28;;;12.24;100.00
59787;BME280;45672;51.612;5.536;2023-11-19T10:00:49;100730.97;;;12.24;100.00
59787;BME280;45672;51.612;5.536;2023-11-19T10:03:15;100738.44;;;12.29;100.00
59787;BME280;45672;51.612;5.536;2023-11-19T10:05:40;100727.28;;;12.34;100.00
59787;BME280;45672;51.612;5.536;2023-11-19T10:08:06;100724.63;;;12.34;100.00
59787;BME280;45672;51.612;5.536;2023-11-19T10:10:33;100719.13;;;12.35;100.00
59787;BME280;45672;51.612;5.536;2023-11-19T10:12:58;100722.78;;;12.34;100.00
59787;BME280;45672;51.612;5.536;2023-11-19T10:15:26;100728.25;;;12.49;100.00
59787;BME280;45672;51.612;5.536;2023-11-19T10:17:54;100714.56;;;12.52;100.00
59787;BME280;45672;51.612;5.536;2023-11-19T10:20:20;100706.06;;;12.57;100.00
59787;BME280;45672;51.612;5.536;2023-11-19T10:22:45;100730.53;;;12.61;100.00
59787;BME280;45672;51.612;5.536;2023-11-19T10:25:24;100716.72;;;12.57;100.00
59787;BME280;45672;51.612;5.536;2023-11-19T10:27:51;100725.88;;;12.71;100.00
59787;BME280;45672;51.612;5.536;2023-11-19T10:30:34;100723.66;;;12.83;100.00
59787;BME280;45672;51.612;5.536;2023-11-19T10:35:34;100732.41;;;13.00;100.00
59787;BME280;45672;51.612;5.536;2023-11-19T10:38:16;100725.59;;;12.97;100.00
59787;BME280;45672;51.612;5.536;2023-11-19T10:40:41;100719.88;;;13.00;100.00
59787;BME280;45672;51.612;5.536;2023-11-19T10:43:07;100713.13;;;12.89;100.00
59787;BME280;45672;51.612;5.536;2023-11-19T10:45:33;100716.44;;;12.91;100.00
59787;BME280;45672;51.612;5.536;2023-11-19T10:47:59;100719.78;;;12.93;100.00
59787;BME280;45672;51.612;5.536;2023-11-19T10:50:25;100718.75;;;12.94;100.00
59787;BME280;45672;51.612;5.536;2023-11-19T10:52:56;100716.75;;;12.97;100.00
59787;BME280;45672;51.612;5.536;2023-11-19T10:55:29;100723.09;;;12.96;100.00
59787;BME280;45672;51.612;5.536;2023-11-19T10:58:08;100722.28;;;12.95;100.00
59787;BME280;45672;51.612;5.536;2023-11-19T11:00:44;100734.03;;;13.09;100.00
59787;BME280;45672;51.612;5.536;2023-11-19T11:03:21;100718.16;;;13.16;100.00
59787;BME280;45672;51.612;5.536;2023-11-19T11:05:51;100706.88;;;13.28;100.00
59787;BME280;45672;51.612;5.536;2023-11-19T11:08:17;100712.53;;;13.34;100.00
59787;BME280;45672;51.612;5.536;2023-11-19T11:10:45;100717.56;;;13.28;100.00
59787;BME280;45672;51.612;5.536;2023-11-19T11:13:13;100712.13;;;13.22;100.00
59787;BME280;45672;51.612;5.536;2023-11-19T11:15:38;100695.28;;;13.13;100.00
59787;BME280;45672;51.612;5.536;2023-11-19T11:18:06;100698.34;;;13.02;100.00
59787;BME280;45672;51.612;5.536;2023-11-19T11:20:33;100693.53;;;12.97;100.00
59787;BME280;45672;51.612;5.536;2023-11-19T11:26:05;100699.78;;;12.81;100.00
59787;BME280;45672;51.612;5.536;2023-11-19T11:28:54;100692.25;;;12.85;100.00
59787;BME280;45672;51.612;5.536;2023-11-19T11:34:05;100698.13;;;12.72;100.00
59787;BME280;45672;51.612;5.536;2023-11-19T11:39:29;100678.66;;;12.63;100.00
59787;BME280;45672;51.612;5.536;2023-11-19T11:50:21;100688.25;;;12.41;100.00
59787;BME280;45672;51.612;5.536;2023-11-19T11:55:36;100677.44;;;12.34;100.00
59787;BME280;45672;51.612;5.536;2023-11-19T11:58:10;100679.56;;;12.39;100.00
59787;BME280;45672;51.612;5.536;2023-11-19T12:00:40;100674.38;;;12.46;100.00
59787;BME280;45672;51.612;5.536;2023-11-19T12:03:06;100678.38;;;12.50;100.00
59787;BME280;45672;51.612;5.536;2023-11-19T12:05:32;100675.53;;;12.59;100.00
59787;BME280;45672;51.612;5.536;2023-11-19T12:08:07;100671.00;;;12.60;100.00
59787;BME280;45672;51.612;5.536;2023-11-19T12:10:49;100677.88;;;12.54;100.00
59787;BME280;45672;51.612;5.536;2023-11-19T12:13:16;100660.19;;;12.53;100.00
59787;BME280;45672;51.612;5.536;2023-11-19T12:18:24;100671.81;;;12.61;100.00
59787;BME280;45672;51.612;5.536;2023-11-19T12:20:49;100672.78;;;12.68;100.00
59787;BME280;45672;51.612;5.536;2023-11-19T12:23:15;100648.63;;;12.69;100.00
59787;BME280;45672;51.612;5.536;2023-11-19T12:25:40;100647.72;;;12.85;100.00
59787;BME280;45672;51.612;5.536;2023-11-19T12:28:14;100646.63;;;12.94;100.00
59787;BME280;45672;51.612;5.536;2023-11-19T12:30:41;100667.56;;;13.14;100.00
59787;BME280;45672;51.612;5.536;2023-11-19T12:33:10;100662.38;;;13.21;100.00
59787;BME280;45672;51.612;5.536;2023-11-19T12:35:45;100667.88;;;13.19;100.00
59787;BME280;45672;51.612;5.536;2023-11-19T12:38:23;100652.72;;;13.11;100.00
59787;BME280;45672;51.612;5.536;2023-11-19T12:41:09;100652.75;;;13.03;100.00
59787;BME280;45672;51.612;5.536;2023-11-19T12:43:37;100670.63;;;13.03;100.00
59787;BME280;45672;51.612;5.536;2023-11-19T12:46:16;100664.34;;;12.96;100.00
59787;BME280;45672;51.612;5.536;2023-11-19T12:48:42;100688.34;;;13.04;100.00
59787;BME280;45672;51.612;5.536;2023-11-19T12:51:07;100675.16;;;13.02;100.00
59787;BME280;45672;51.612;5.536;2023-11-19T12:53:50;100674.97;;;13.04;100.00
59787;BME280;45672;51.612;5.536;2023-11-19T12:56:16;100669.94;;;13.09;100.00
59787;BME280;45672;51.612;5.536;2023-11-19T12:58:41;100662.22;;;13.14;100.00
59787;BME280;45672;51.612;5.536;2023-11-19T13:01:08;100650.09;;;13.03;100.00
59787;BME280;45672;51.612;5.536;2023-11-19T13:03:36;100668.97;;;13.02;100.00